sensor_id;sensor_type;location;lat;lon;timestamp;pressure;altitude;pressure_sealevel;temperature;humidity
64158;BME280;50449;51.528;5.076;2023-05-07T00:01:46;101476.81;;;22.65;47.63
64158;BME280;50449;51.528;5.076;2023-05-07T00:04:12;101478.25;;;22.62;47.44
64158;BME280;50449;51.528;5.076;2023-05-07T00:06:38;101473.88;;;22.61;47.63
64158;BME280;50449;51.528;5.076;2023-05-07T00:09:03;101481.34;;;22.61;47.32
64158;BME280;50449;51.528;5.076;2023-05-07T00:11:29;101469.00;;;22.58;47.68
64158;BME280;50449;51.528;5.076;2023-05-07T00:13:55;101482.25;;;22.56;47.66
64158;BME280;50449;51.528;5.076;2023-05-07T00:16:21;101478.97;;;22.54;47.84
64158;BME280;50449;51.528;5.076;2023-05-07T00:18:46;101474.59;;;22.53;47.65
64158;BME280;50449;51.528;5.076;2023-05-07T00:21:12;101480.41;;;22.52;47.96
64158;BME280;50449;51.528;5.076;2023-05-07T00:23:37;101482.63;;;22.50;47.47
64158;BME280;50449;51.528;5.076;2023-05-07T00:26:03;101478.56;;;22.47;47.50
64158;BME280;50449;51.528;5.076;2023-05-07T00:28:28;101471.44;;;22.46;47.98
64158;BME280;50449;51.528;5.076;2023-05-07T00:30:54;101473.66;;;22.44;47.58
64158;BME280;50449;51.528;5.076;2023-05-07T00:33:20;101472.88;;;22.43;48.05
64158;BME280;50449;51.528;5.076;2023-05-07T00:35:46;101468.78;;;22.41;47.52
64158;BME280;50449;51.528;5.076;2023-05-07T00:38:11;101470.22;;;22.38;47.77
64158;BME280;50449;51.528;5.076;2023-05-07T00:40:37;101468.56;;;22.37;48.05
64158;BME280;50449;51.528;5.076;2023-05-07T00:43:02;101466.41;;;22.34;48.00
64158;BME280;50449;51.528;5.076;2023-05-07T00:45:28;101466.41;;;22.34;48.02
64158;BME280;50449;51.528;5.076;2023-05-07T00:47:59;101462.34;;;22.32;48.01
64158;BME280;50449;51.528;5.076;2023-05-07T00:50:29;101467.31;;;22.30;47.96
64158;BME280;50449;51.528;5.076;2023-05-07T00:52:55;101464.91;;;22.28;48.29
64158;BME280;50449;51.528;5.076;2023-05-07T00:55:22;101462.44;;;22.27;47.90
64158;BME280;50449;51.528;5.076;2023-05-07T00:57:48;101458.88;;;22.26;48.24
64158;BME280;50449;51.528;5.076;2023-05-07T01:00:14;101461.91;;;22.24;47.76
64158;BME280;50449;51.528;5.076;2023-05-07T01:02:40;101460.31;;;22.23;48.02
64158;BME280;50449;51.528;5.076;2023-05-07T01:05:09;101458.97;;;22.21;48.28
64158;BME280;50449;51.528;5.076;2023-05-07T01:07:37;101457.31;;;22.20;47.87
64158;BME280;50449;51.528;5.076;2023-05-07T01:10:05;101461.19;;;22.19;47.77
64158;BME280;50449;51.528;5.076;2023-05-07T01:12:31;101455.16;;;22.17;48.17
64158;BME280;50449;51.528;5.076;2023-05-07T01:14:58;101446.38;;;22.15;48.35
64158;BME280;50449;51.528;5.076;2023-05-07T01:17:23;101443.16;;;22.13;48.33
64158;BME280;50449;51.528;5.076;2023-05-07T01:19:49;101447.00;;;22.12;47.74
64158;BME280;50449;51.528;5.076;2023-05-07T01:22:16;101444.84;;;22.09;47.91
64158;BME280;50449;51.528;5.076;2023-05-07T01:24:44;101421.22;;;22.08;48.36
64158;BME280;50449;51.528;5.076;2023-05-07T01:27:10;101430.59;;;22.07;48.17
64158;BME280;50449;51.528;5.076;2023-05-07T01:29:35;101427.31;;;22.04;48.32
64158;BME280;50449;51.528;5.076;2023-05-07T01:32:01;101424.88;;;22.03;47.86
64158;BME280;50449;51.528;5.076;2023-05-07T01:34:30;101427.63;;;22.03;48.44
64158;BME280;50449;51.528;5.076;2023-05-07T01:36:57;101427.94;;;22.01;47.99
64158;BME280;50449;51.528;5.076;2023-05-07T01:39:28;101431.00;;;22.00;48.42
64158;BME280;50449;51.528;5.076;2023-05-07T01:41:58;101428.53;;;21.98;48.55
64158;BME280;50449;51.528;5.076;2023-05-07T01:44:25;101417.84;;;21.97;48.45
64158;BME280;50449;51.528;5.076;2023-05-07T01:46:51;101417.03;;;21.96;48.11
64158;BME280;50449;51.528;5.076;2023-05-07T01:49:17;101428.34;;;21.95;48.31
64158;BME280;50449;51.528;5.076;2023-05-07T01:51:43;101424.75;;;21.94;48.31
64158;BME280;50449;51.528;5.076;2023-05-07T01:54:09;101411.31;;;21.93;48.04
64158;BME280;50449;51.528;5.076;2023-05-07T01:56:35;101419.88;;;21.91;48.51
64158;BME280;50449;51.528;5.076;2023-05-07T01:59:00;101413.56;;;21.91;48.43
64158;BME280;50449;51.528;5.076;2023-05-07T02:01:27;101420.47;;;21.88;48.55
64158;BME280;50449;51.528;5.076;2023-05-07T02:03:52;101423.22;;;21.88;48.10
64158;BME280;50449;51.528;5.076;2023-05-07T02:06:18;101422.72;;;21.86;48.60
64158;BME280;50449;51.528;5.076;2023-05-07T02:08:44;101414.75;;;21.85;48.37
64158;BME280;50449;51.528;5.076;2023-05-07T02:11:10;101418.63;;;21.83;48.22
64158;BME280;50449;51.528;5.076;2023-05-07T02:13:36;101420.56;;;21.83;48.29
64158;BME280;50449;51.528;5.076;2023-05-07T02:16:02;101420.06;;;21.81;48.57
64158;BME280;50449;51.528;5.076;2023-05-07T02:18:27;101425.03;;;21.79;48.44
64158;BME280;50449;51.528;5.076;2023-05-07T02:20:53;101422.28;;;21.79;48.09
64158;BME280;50449;51.528;5.076;2023-05-07T02:23:18;101422.59;;;21.77;48.54
64158;BME280;50449;51.528;5.076;2023-05-07T02:25:44;101420.94;;;21.76;48.21
64158;BME280;50449;51.528;5.076;2023-05-07T02:28:09;101429.53;;;21.75;48.54
64158;BME280;50449;51.528;5.076;2023-05-07T02:30:36;101427.06;;;21.73;48.83
64158;BME280;50449;51.528;5.076;2023-05-07T02:33:02;101430.94;;;21.72;48.50
64158;BME280;50449;51.528;5.076;2023-05-07T02:35:27;101430.09;;;21.72;48.68
64158;BME280;50449;51.528;5.076;2023-05-07T02:37:53;101428.47;;;21.71;48.59
64158;BME280;50449;51.528;5.076;2023-05-07T02:40:18;101414.22;;;21.69;48.24
64158;BME280;50449;51.528;5.076;2023-05-07T02:42:43;101420.84;;;21.68;48.78
64158;BME280;50449;51.528;5.076;2023-05-07T02:45:09;101425.81;;;21.66;48.32
64158;BME280;50449;51.528;5.076;2023-05-07T02:47:35;101434.34;;;21.64;48.23
64158;BME280;50449;51.528;5.076;2023-05-07T02:50:00;101429.97;;;21.63;48.72
64158;BME280;50449;51.528;5.076;2023-05-07T02:52:26;101428.38;;;21.62;48.27
64158;BME280;50449;51.528;5.076;2023-05-07T02:54:51;101424.78;;;21.61;48.66
64158;BME280;50449;51.528;5.076;2023-05-07T02:57:16;101428.66;;;21.60;48.32
64158;BME280;50449;51.528;5.076;2023-05-07T02:59:42;101428.13;;;21.58;48.57
64158;BME280;50449;51.528;5.076;2023-05-07T03:02:08;101435.84;;;21.56;48.92
64158;BME280;50449;51.528;5.076;2023-05-07T03:04:33;101433.09;;;21.56;48.84
64158;BME280;50449;51.528;5.076;2023-05-07T03:06:59;101429.84;;;21.54;48.50
64158;BME280;50449;51.528;5.076;2023-05-07T03:09:24;101421.91;;;21.53;48.80
64158;BME280;50449;51.528;5.076;2023-05-07T03:11:50;101429.34;;;21.52;48.47
64158;BME280;50449;51.528;5.076;2023-05-07T03:14:15;101429.63;;;21.51;48.92
64158;BME280;50449;51.528;5.076;2023-05-07T03:16:40;101423.31;;;21.50;49.07
64158;BME280;50449;51.528;5.076;2023-05-07T03:19:06;101426.34;;;21.49;48.52
64158;BME280;50449;51.528;5.076;2023-05-07T03:21:31;101421.19;;;21.47;49.10
64158;BME280;50449;51.528;5.076;2023-05-07T03:23:59;101419.84;;;21.45;49.08
64158;BME280;50449;51.528;5.076;2023-05-07T03:26:24;101416.25;;;21.44;49.14
64158;BME280;50449;51.528;5.076;2023-05-07T03:28:50;101417.38;;;21.43;48.80
64158;BME280;50449;51.528;5.076;2023-05-07T03:31:16;101422.06;;;21.43;48.61
64158;BME280;50449;51.528;5.076;2023-05-07T03:33:55;101423.16;;;21.42;48.55
64158;BME280;50449;51.528;5.076;2023-05-07T03:36:21;101426.53;;;21.38;49.03
64158;BME280;50449;51.528;5.076;2023-05-07T03:38:48;101421.31;;;21.37;49.07
64158;BME280;50449;51.528;5.076;2023-05-07T03:41:13;101421.31;;;21.37;48.71
64158;BME280;50449;51.528;5.076;2023-05-07T03:43:39;101425.16;;;21.36;48.89
64158;BME280;50449;51.528;5.076;2023-05-07T03:46:04;101426.28;;;21.35;48.83
64158;BME280;50449;51.528;5.076;2023-05-07T03:48:30;101427.38;;;21.34;49.04
64158;BME280;50449;51.528;5.076;2023-05-07T03:50:56;101429.31;;;21.33;49.00
64158;BME280;50449;51.528;5.076;2023-05-07T03:53:22;101426.88;;;21.32;48.73
64158;BME280;50449;51.528;5.076;2023-05-07T03:55:47;101434.28;;;21.31;48.65
64158;BME280;50449;51.528;5.076;2023-05-07T03:58:13;101438.16;;;21.30;48.83
64158;BME280;50449;51.528;5.076;2023-05-07T04:00:38;101438.47;;;21.29;49.12
64158;BME280;50449;51.528;5.076;2023-05-07T04:03:05;101434.91;;;21.28;49.33
64158;BME280;50449;51.528;5.076;2023-05-07T04:05:31;101435.19;;;21.27;49.27
64158;BME280;50449;51.528;5.076;2023-05-07T04:08:00;101427.25;;;21.25;48.89
64158;BME280;50449;51.528;5.076;2023-05-07T04:10:25;101426.44;;;21.25;48.84
64158;BME280;50449;51.528;5.076;2023-05-07T04:12:51;101437.72;;;21.23;49.01
64158;BME280;50449;51.528;5.076;2023-05-07T04:15:17;101436.09;;;21.22;49.24
64158;BME280;50449;51.528;5.076;2023-05-07T04:17:42;101438.84;;;21.22;49.29
64158;BME280;50449;51.528;5.076;2023-05-07T04:20:14;101443.50;;;21.22;49.54
64158;BME280;50449;51.528;5.076;2023-05-07T04:22:40;101436.38;;;21.21;49.00
64158;BME280;50449;51.528;5.076;2023-05-07T04:25:06;101443.28;;;21.18;49.08
64158;BME280;50449;51.528;5.076;2023-05-07T04:27:34;101438.94;;;21.17;48.97
64158;BME280;50449;51.528;5.076;2023-05-07T04:30:00;101445.50;;;21.16;49.17
64158;BME280;50449;51.528;5.076;2023-05-07T04:32:26;101437.59;;;21.14;49.09
64158;BME280;50449;51.528;5.076;2023-05-07T04:34:52;101437.59;;;21.14;48.97
64158;BME280;50449;51.528;5.076;2023-05-07T04:37:17;101440.63;;;21.13;49.50
64158;BME280;50449;51.528;5.076;2023-05-07T04:39:42;101445.31;;;21.12;49.52
64158;BME280;50449;51.528;5.076;2023-05-07T04:42:08;101443.66;;;21.11;48.99
64158;BME280;50449;51.528;5.076;2023-05-07T04:44:34;101438.47;;;21.10;49.13
64158;BME280;50449;51.528;5.076;2023-05-07T04:47:00;101435.72;;;21.10;49.56
64158;BME280;50449;51.528;5.076;2023-05-07T04:49:26;101445.91;;;21.09;49.13
64158;BME280;50449;51.528;5.076;2023-05-07T04:51:51;101446.19;;;21.08;49.53
64158;BME280;50449;51.528;5.076;2023-05-07T04:54:17;101448.13;;;21.07;49.55
64158;BME280;50449;51.528;5.076;2023-05-07T04:56:42;101447.31;;;21.07;49.09
64158;BME280;50449;51.528;5.076;2023-05-07T04:59:08;101453.91;;;21.06;49.38
64158;BME280;50449;51.528;5.076;2023-05-07T05:01:33;101452.28;;;21.05;49.40
64158;BME280;50449;51.528;5.076;2023-05-07T05:03:58;101455.31;;;21.03;49.69
64158;BME280;50449;51.528;5.076;2023-05-07T05:06:25;101447.38;;;21.02;49.15
64158;BME280;50449;51.528;5.076;2023-05-07T05:08:51;101456.44;;;21.02;49.76
64158;BME280;50449;51.528;5.076;2023-05-07T05:11:16;101455.63;;;21.02;49.74
64158;BME280;50449;51.528;5.076;2023-05-07T05:13:41;101456.72;;;21.01;49.75
64158;BME280;50449;51.528;5.076;2023-05-07T05:16:07;101454.28;;;20.99;49.31
64158;BME280;50449;51.528;5.076;2023-05-07T05:18:32;101459.78;;;20.99;49.34
64158;BME280;50449;51.528;5.076;2023-05-07T05:20:58;101467.19;;;20.99;49.71
64158;BME280;50449;51.528;5.076;2023-05-07T05:23:23;101460.88;;;20.98;49.28
64158;BME280;50449;51.528;5.076;2023-05-07T05:25:49;101469.13;;;20.98;49.65
64158;BME280;50449;51.528;5.076;2023-05-07T05:28:14;101470.25;;;20.97;49.54
64158;BME280;50449;51.528;5.076;2023-05-07T05:30:40;101469.44;;;20.96;49.97
64158;BME280;50449;51.528;5.076;2023-05-07T05:33:05;101468.59;;;20.96;49.58
64158;BME280;50449;51.528;5.076;2023-05-07T05:35:31;101470.53;;;20.95;50.04
64158;BME280;50449;51.528;5.076;2023-05-07T05:37:57;101473.28;;;20.95;49.69
64158;BME280;50449;51.528;5.076;2023-05-07T05:40:22;101474.41;;;20.94;49.67
64158;BME280;50449;51.528;5.076;2023-05-07T05:42:47;101483.72;;;20.93;49.92
64158;BME280;50449;51.528;5.076;2023-05-07T05:45:13;101480.16;;;20.93;50.26
64158;BME280;50449;51.528;5.076;2023-05-07T05:47:38;101480.16;;;20.93;50.24
64158;BME280;50449;51.528;5.076;2023-05-07T05:50:06;101484.03;;;20.92;49.94
64158;BME280;50449;51.528;5.076;2023-05-07T05:52:31;101477.72;;;20.91;49.94
64158;BME280;50449;51.528;5.076;2023-05-07T05:54:57;101490.34;;;20.92;50.47
64158;BME280;50449;51.528;5.076;2023-05-07T05:57:22;101484.03;;;20.92;50.48
64158;BME280;50449;51.528;5.076;2023-05-07T05:59:48;101487.06;;;20.90;50.60
64158;BME280;50449;51.528;5.076;2023-05-07T06:02:13;101479.94;;;20.89;50.10
64158;BME280;50449;51.528;5.076;2023-05-07T06:04:38;101479.66;;;20.91;50.21
64158;BME280;50449;51.528;5.076;2023-05-07T06:07:04;101482.69;;;20.89;50.77
64158;BME280;50449;51.528;5.076;2023-05-07T06:09:29;101481.03;;;20.88;50.84
64158;BME280;50449;51.528;5.076;2023-05-07T06:11:55;101484.59;;;20.89;50.83
64158;BME280;50449;51.528;5.076;2023-05-07T06:14:21;101484.91;;;20.87;50.54
64158;BME280;50449;51.528;5.076;2023-05-07T06:16:46;101482.44;;;20.86;50.40
64158;BME280;50449;51.528;5.076;2023-05-07T06:19:11;101480.53;;;20.86;50.43
64158;BME280;50449;51.528;5.076;2023-05-07T06:21:38;101487.94;;;20.86;50.92
64158;BME280;50449;51.528;5.076;2023-05-07T06:24:04;101489.59;;;20.87;51.16
64158;BME280;50449;51.528;5.076;2023-05-07T06:26:30;101486.00;;;20.86;51.00
64158;BME280;50449;51.528;5.076;2023-05-07T06:28:55;101481.34;;;20.87;50.78
64158;BME280;50449;51.528;5.076;2023-05-07T06:31:20;101492.34;;;20.87;51.13
64158;BME280;50449;51.528;5.076;2023-05-07T06:33:46;101493.16;;;20.87;50.99
64158;BME280;50449;51.528;5.076;2023-05-07T06:36:12;101489.88;;;20.85;50.81
64158;BME280;50449;51.528;5.076;2023-05-07T06:38:38;101504.41;;;20.86;51.04
64158;BME280;50449;51.528;5.076;2023-05-07T06:41:03;101501.69;;;20.86;50.94
64158;BME280;50449;51.528;5.076;2023-05-07T06:43:28;101501.69;;;20.86;51.55
64158;BME280;50449;51.528;5.076;2023-05-07T06:45:54;101507.16;;;20.86;51.25
64158;BME280;50449;51.528;5.076;2023-05-07T06:48:19;101500.88;;;20.85;51.52
64158;BME280;50449;51.528;5.076;2023-05-07T06:50:45;101500.88;;;20.85;51.51
64158;BME280;50449;51.528;5.076;2023-05-07T06:53:10;101500.88;;;20.85;51.59
64158;BME280;50449;51.528;5.076;2023-05-07T06:55:36;101497.31;;;20.85;51.75
64158;BME280;50449;51.528;5.076;2023-05-07T06:58:03;101501.69;;;20.86;51.70
64158;BME280;50449;51.528;5.076;2023-05-07T07:00:29;101502.22;;;20.88;51.83
64158;BME280;50449;51.528;5.076;2023-05-07T07:02:55;101504.13;;;20.87;52.16
64158;BME280;50449;51.528;5.076;2023-05-07T07:05:20;101496.19;;;20.86;51.80
64158;BME280;50449;51.528;5.076;2023-05-07T07:07:46;101504.41;;;20.86;51.65
64158;BME280;50449;51.528;5.076;2023-05-07T07:10:21;101498.13;;;20.85;51.96
64158;BME280;50449;51.528;5.076;2023-05-07T07:12:46;101501.41;;;20.87;52.07
64158;BME280;50449;51.528;5.076;2023-05-07T07:15:13;101511.56;;;20.87;52.00
64158;BME280;50449;51.528;5.076;2023-05-07T07:17:39;101506.88;;;20.87;52.36
64158;BME280;50449;51.528;5.076;2023-05-07T07:20:05;101505.22;;;20.86;51.86
64158;BME280;50449;51.528;5.076;2023-05-07T07:22:30;101504.41;;;20.86;52.21
64158;BME280;50449;51.528;5.076;2023-05-07T07:24:56;101507.69;;;20.88;51.89
64158;BME280;50449;51.528;5.076;2023-05-07T07:27:21;101513.72;;;20.90;52.28
64158;BME280;50449;51.528;5.076;2023-05-07T07:29:46;101512.91;;;20.89;52.00
64158;BME280;50449;51.528;5.076;2023-05-07T07:32:12;101511.78;;;20.90;52.59
64158;BME280;50449;51.528;5.076;2023-05-07T07:34:37;101512.59;;;20.91;52.88
64158;BME280;50449;51.528;5.076;2023-05-07T07:37:03;101517.81;;;20.92;53.23
64158;BME280;50449;51.528;5.076;2023-05-07T07:39:32;101518.63;;;20.93;53.38
64158;BME280;50449;51.528;5.076;2023-05-07T07:41:57;101524.09;;;20.93;53.36
64158;BME280;50449;51.528;5.076;2023-05-07T07:44:22;101524.09;;;20.93;52.82
64158;BME280;50449;51.528;5.076;2023-05-07T07:46:48;101526.56;;;20.94;52.83
64158;BME280;50449;51.528;5.076;2023-05-07T07:49:14;101527.38;;;20.95;53.16
64158;BME280;50449;51.528;5.076;2023-05-07T07:51:40;101528.19;;;20.95;53.62
64158;BME280;50449;51.528;5.076;2023-05-07T07:54:05;101525.44;;;20.95;53.20
64158;BME280;50449;51.528;5.076;2023-05-07T07:56:32;101527.91;;;20.97;53.15
64158;BME280;50449;51.528;5.076;2023-05-07T07:58:58;101524.84;;;20.99;53.69
64158;BME280;50449;51.528;5.076;2023-05-07T08:01:23;101523.22;;;20.98;53.76
64158;BME280;50449;51.528;5.076;2023-05-07T08:03:49;101529.25;;;21.00;53.78
64158;BME280;50449;51.528;5.076;2023-05-07T08:06:14;101530.88;;;21.01;53.38
64158;BME280;50449;51.528;5.076;2023-05-07T08:08:40;101530.59;;;21.02;54.06
64158;BME280;50449;51.528;5.076;2023-05-07T08:11:06;101527.03;;;21.02;53.89
64158;BME280;50449;51.528;5.076;2023-05-07T08:13:31;101531.13;;;21.04;54.00
64158;BME280;50449;51.528;5.076;2023-05-07T08:15:57;101535.50;;;21.05;53.56
64158;BME280;50449;51.528;5.076;2023-05-07T08:18:22;101536.84;;;21.08;54.42
64158;BME280;50449;51.528;5.076;2023-05-07T08:20:50;101532.97;;;21.09;54.57
64158;BME280;50449;51.528;5.076;2023-05-07T08:23:15;101543.66;;;21.10;54.75
64158;BME280;50449;51.528;5.076;2023-05-07T08:25:41;101544.19;;;21.12;54.31
64158;BME280;50449;51.528;5.076;2023-05-07T08:28:08;101540.31;;;21.13;54.80
64158;BME280;50449;51.528;5.076;2023-05-07T08:30:33;101548.56;;;21.13;54.42
64158;BME280;50449;51.528;5.076;2023-05-07T08:33:00;101545.81;;;21.13;54.58
64158;BME280;50449;51.528;5.076;2023-05-07T08:35:25;101547.16;;;21.16;54.40
64158;BME280;50449;51.528;5.076;2023-05-07T08:37:52;101553.19;;;21.18;54.42
64158;BME280;50449;51.528;5.076;2023-05-07T08:40:17;101546.06;;;21.17;53.88
64158;BME280;50449;51.528;5.076;2023-05-07T08:42:44;101550.97;;;21.20;53.89
64158;BME280;50449;51.528;5.076;2023-05-07T08:45:10;101548.75;;;21.22;54.24
64158;BME280;50449;51.528;5.076;2023-05-07T08:47:42;101558.34;;;21.25;54.57
64158;BME280;50449;51.528;5.076;2023-05-07T08:50:08;101555.88;;;21.23;54.24
64158;BME280;50449;51.528;5.076;2023-05-07T08:52:35;101559.44;;;21.24;53.56
64158;BME280;50449;51.528;5.076;2023-05-07T08:55:02;101560.50;;;21.28;53.52
64158;BME280;50449;51.528;5.076;2023-05-07T08:57:28;101562.63;;;21.31;53.96
64158;BME280;50449;51.528;5.076;2023-05-07T08:59:53;101557.66;;;21.33;54.22
64158;BME280;50449;51.528;5.076;2023-05-07T09:02:19;101557.38;;;21.34;54.36
64158;BME280;50449;51.528;5.076;2023-05-07T09:04:44;101561.19;;;21.38;54.64
64158;BME280;50449;51.528;5.076;2023-05-07T09:07:10;101560.34;;;21.38;54.48
64158;BME280;50449;51.528;5.076;2023-05-07T09:09:35;101551.28;;;21.37;54.12
64158;BME280;50449;51.528;5.076;2023-05-07T09:12:00;101550.72;;;21.41;53.99
64158;BME280;50449;51.528;5.076;2023-05-07T09:14:27;101553.19;;;21.42;53.81
64158;BME280;50449;51.528;5.076;2023-05-07T09:16:53;101546.28;;;21.45;53.80
64158;BME280;50449;51.528;5.076;2023-05-07T09:19:26;101551.19;;;21.48;54.28
64158;BME280;50449;51.528;5.076;2023-05-07T09:22:05;101560.75;;;21.50;54.33
64158;BME280;50449;51.528;5.076;2023-05-07T09:24:32;101558.53;;;21.52;54.56
64158;BME280;50449;51.528;5.076;2023-05-07T09:27:06;101565.66;;;21.53;54.04
64158;BME280;50449;51.528;5.076;2023-05-07T09:29:31;101552.44;;;21.55;54.60
64158;BME280;50449;51.528;5.076;2023-05-07T09:32:01;101556.16;;;21.65;53.96
64158;BME280;50449;51.528;5.076;2023-05-07T09:34:26;101557.34;;;21.58;54.57
64158;BME280;50449;51.528;5.076;2023-05-07T09:36:52;101560.38;;;21.57;54.46
64158;BME280;50449;51.528;5.076;2023-05-07T09:39:19;101559.81;;;21.60;54.65
64158;BME280;50449;51.528;5.076;2023-05-07T09:41:45;101558.38;;;21.63;54.30
64158;BME280;50449;51.528;5.076;2023-05-07T09:44:12;101569.91;;;21.65;54.45
64158;BME280;50449;51.528;5.076;2023-05-07T09:46:39;101558.31;;;21.68;54.36
64158;BME280;50449;51.528;5.076;2023-05-07T09:49:07;101564.03;;;21.71;54.34
64158;BME280;50449;51.528;5.076;2023-05-07T09:51:47;101568.44;;;21.72;54.92
64158;BME280;50449;51.528;5.076;2023-05-07T09:54:13;101557.44;;;21.72;54.25
64158;BME280;50449;51.528;5.076;2023-05-07T09:56:39;101552.41;;;21.74;54.25
64158;BME280;50449;51.528;5.076;2023-05-07T09:59:06;101551.31;;;21.75;54.13
64158;BME280;50449;51.528;5.076;2023-05-07T10:01:32;101552.34;;;21.79;54.48
64158;BME280;50449;51.528;5.076;2023-05-07T10:04:02;101561.13;;;21.81;53.97
64158;BME280;50449;51.528;5.076;2023-05-07T10:06:30;101553.38;;;21.83;54.28
64158;BME280;50449;51.528;5.076;2023-05-07T10:08:56;101558.59;;;21.85;54.26
64158;BME280;50449;51.528;5.076;2023-05-07T10:11:22;101569.28;;;21.87;53.69
64158;BME280;50449;51.528;5.076;2023-05-07T10:13:48;101564.03;;;21.90;54.06
64158;BME280;50449;51.528;5.076;2023-05-07T10:16:14;101559.53;;;21.94;54.33
64158;BME280;50449;51.528;5.076;2023-05-07T10:18:40;101557.03;;;21.98;54.24
64158;BME280;50449;51.528;5.076;2023-05-07T10:21:19;101569.03;;;22.02;54.57
64158;BME280;50449;51.528;5.076;2023-05-07T10:23:58;101569.28;;;22.06;54.59
64158;BME280;50449;51.528;5.076;2023-05-07T10:26:25;101570.28;;;22.10;54.81
64158;BME280;50449;51.528;5.076;2023-05-07T10:28:56;101572.22;;;22.09;54.42
64158;BME280;50449;51.528;5.076;2023-05-07T10:33:55;101569.41;;;22.14;54.26
64158;BME280;50449;51.528;5.076;2023-05-07T10:36:22;101577.59;;;22.19;54.17
64158;BME280;50449;51.528;5.076;2023-05-07T10:38:48;101569.84;;;22.21;53.89
64158;BME280;50449;51.528;5.076;2023-05-07T10:41:14;101580.78;;;22.27;54.16
64158;BME280;50449;51.528;5.076;2023-05-07T10:43:43;101574.66;;;22.30;53.67
64158;BME280;50449;51.528;5.076;2023-05-07T10:46:17;101583.97;;;22.34;53.32
64158;BME280;50449;51.528;5.076;2023-05-07T10:51:32;101575.91;;;22.37;53.19
64158;BME280;50449;51.528;5.076;2023-05-07T10:56:35;101584.59;;;22.44;53.24
64158;BME280;50449;51.528;5.076;2023-05-07T11:04:15;101586.06;;;22.56;53.39
64158;BME280;50449;51.528;5.076;2023-05-07T11:06:41;101589.31;;;22.58;52.96
64158;BME280;50449;51.528;5.076;2023-05-07T11:09:06;101590.34;;;22.62;53.32
64158;BME280;50449;51.528;5.076;2023-05-07T11:11:46;101588.63;;;22.66;53.14
64158;BME280;50449;51.528;5.076;2023-05-07T11:17:02;101592.72;;;22.68;53.53
64158;BME280;50449;51.528;5.076;2023-05-07T11:19:50;101596.19;;;22.74;53.07
64158;BME280;50449;51.528;5.076;2023-05-07T11:22:45;101601.88;;;22.78;53.53
64158;BME280;50449;51.528;5.076;2023-05-07T11:25:17;101594.75;;;22.77;53.85
64158;BME280;50449;51.528;5.076;2023-05-07T11:27:43;101596.09;;;22.79;53.76
64158;BME280;50449;51.528;5.076;2023-05-07T11:30:09;101600.69;;;22.84;53.53
64158;BME280;50449;51.528;5.076;2023-05-07T11:32:37;101600.06;;;22.87;53.32
64158;BME280;50449;51.528;5.076;2023-05-07T11:35:02;101598.63;;;22.89;53.26
64158;BME280;50449;51.528;5.076;2023-05-07T11:37:28;101600.78;;;22.93;53.02
64158;BME280;50449;51.528;5.076;2023-05-07T11:40:07;101603.75;;;22.96;52.79
64158;BME280;50449;51.528;5.076;2023-05-07T11:42:36;101591.63;;;22.97;53.27
64158;BME280;50449;51.528;5.076;2023-05-07T11:45:03;101594.59;;;23.01;52.86
64158;BME280;50449;51.528;5.076;2023-05-07T11:47:32;101598.97;;;23.02;52.77
64158;BME280;50449;51.528;5.076;2023-05-07T11:50:06;101585.19;;;23.02;52.13
64158;BME280;50449;51.528;5.076;2023-05-07T11:52:33;101590.09;;;23.05;52.58
64158;BME280;50449;51.528;5.076;2023-05-07T11:54:59;101590.59;;;23.07;52.18
64158;BME280;50449;51.528;5.076;2023-05-07T11:57:25;101590.81;;;23.10;52.29
64158;BME280;50449;51.528;5.076;2023-05-07T11:59:55;101590.69;;;23.16;51.82
64158;BME280;50449;51.528;5.076;2023-05-07T12:02:21;101593.66;;;23.19;51.89
64158;BME280;50449;51.528;5.076;2023-05-07T12:04:46;101597.44;;;23.23;51.96
64158;BME280;50449;51.528;5.076;2023-05-07T12:07:12;101599.59;;;23.26;51.75
64158;BME280;50449;51.528;5.076;2023-05-07T12:09:42;101598.16;;;23.29;51.03
64158;BME280;50449;51.528;5.076;2023-05-07T12:12:07;101586.00;;;23.30;51.33
64158;BME280;50449;51.528;5.076;2023-05-07T12:14:41;101605.50;;;23.33;51.11
64158;BME280;50449;51.528;5.076;2023-05-07T12:17:11;101604.38;;;23.35;51.30
64158;BME280;50449;51.528;5.076;2023-05-07T12:19:38;101600.19;;;23.37;51.36
64158;BME280;50449;51.528;5.076;2023-05-07T12:22:04;101605.69;;;23.37;51.30
64158;BME280;50449;51.528;5.076;2023-05-07T12:24:44;101604.25;;;23.40;51.26
64158;BME280;50449;51.528;5.076;2023-05-07T12:27:10;101606.22;;;23.39;51.15
64158;BME280;50449;51.528;5.076;2023-05-07T12:29:35;101610.59;;;23.40;51.19
64158;BME280;50449;51.528;5.076;2023-05-07T12:32:04;101606.09;;;23.44;50.91
64158;BME280;50449;51.528;5.076;2023-05-07T12:34:31;101609.16;;;23.43;51.05
64158;BME280;50449;51.528;5.076;2023-05-07T12:36:56;101617.31;;;23.48;51.07
64158;BME280;50449;51.528;5.076;2023-05-07T12:39:22;101611.50;;;23.49;50.82
64158;BME280;50449;51.528;5.076;2023-05-07T12:41:58;101610.06;;;23.52;50.82
64158;BME280;50449;51.528;5.076;2023-05-07T12:44:34;101608.63;;;23.54;50.82
64158;BME280;50449;51.528;5.076;2023-05-07T12:47:03;101614.97;;;23.55;50.80
64158;BME280;50449;51.528;5.076;2023-05-07T12:49:28;101619.66;;;23.54;50.68
64158;BME280;50449;51.528;5.076;2023-05-07T12:51:54;101628.13;;;23.58;50.66
64158;BME280;50449;51.528;5.076;2023-05-07T12:54:30;101635.81;;;23.61;51.23
64158;BME280;50449;51.528;5.076;2023-05-07T12:57:05;101640.19;;;23.62;51.01
64158;BME280;50449;51.528;5.076;2023-05-07T12:59:37;101641.00;;;23.63;50.93
64158;BME280;50449;51.528;5.076;2023-05-07T13:02:03;101642.63;;;23.64;50.87
64158;BME280;50449;51.528;5.076;2023-05-07T13:04:29;101653.34;;;23.65;51.00